Time;durP1;ratioP1;P1;durP2;ratioP2;P2;SDS_P1;SDS_P2;PMS_P1;PMS_P2;Temp;Humidity;BMP_temperature;BMP_pressure;BME280_temperature;BME280_humidity;BME280_pressure;Samples;Min_cycle;Max_cycle;Signal;HPM_P1;HPM_P2
2023/01/07 00:01:06;;;;;;;23.60;8.43;;;;;;;8.72;49.99;99812.13;5075577;28;20248;-83
2023/01/07 00:03:32;;;;;;;17.53;7.63;;;;;;;8.73;50.90;99816.44;5076007;28;20162;-83
2023/01/07 00:05:59;;;;;;;11.37;5.67;;;;;;;8.60;51.26;99821.25;5074481;28;20519;-83
2023/01/07 00:08:24;;;;;;;13.50;6.43;;;;;;;8.47;51.64;99831.25;5075398;28;20641;-83
2023/01/07 00:10:50;;;;;;;19.03;6.27;;;;;;;8.46;51.43;99831.31;5075641;28;20191;-83
2023/01/07 00:13:15;;;;;;;18.63;5.87;;;;;;;8.35;51.87;99833.41;5074381;28;20566;-83
2023/01/07 00:15:40;;;;;;;18.23;6.73;;;;;;;8.21;52.68;99833.81;5075515;28;20176;-83
2023/01/07 00:18:06;;;;;;;12.03;5.33;;;;;;;7.96;53.00;99833.75;5075211;28;20586;-83
2023/01/07 00:20:31;;;;;;;15.47;4.67;;;;;;;8.04;53.33;99838.72;5075727;28;20246;-83
2023/01/07 00:22:56;;;;;;;8.33;3.60;;;;;;;8.03;53.66;99839.63;5074136;28;20188;-83
2023/01/07 00:25:22;;;;;;;8.83;3.43;;;;;;;7.80;54.31;99842.94;5075112;28;20204;-83
2023/01/07 00:27:47;;;;;;;5.97;3.30;;;;;;;7.79;55.28;99841.22;5074040;28;20178;-84
2023/01/07 00:30:13;;;;;;;10.47;3.93;;;;;;;7.93;54.76;99835.59;5074009;28;20183;-84
2023/01/07 00:35:36;;;;;;;11.70;2.93;;;;;;;8.04;54.52;99836.94;5073681;28;20187;-83
2023/01/07 00:38:03;;;;;;;5.10;2.07;;;;;;;8.05;54.60;99824.75;5074592;28;20569;-84
2023/01/07 00:40:32;;;;;;;6.90;2.63;;;;;;;7.92;55.02;99839.09;5074830;28;20191;-84
2023/01/07 00:43:03;;;;;;;5.53;2.60;;;;;;;7.88;54.87;99830.53;5073760;28;20186;-83
2023/01/07 00:45:34;;;;;;;4.33;2.17;;;;;;;7.79;55.23;99838.63;5073756;28;20178;-83
2023/01/07 00:48:01;;;;;;;5.93;2.30;;;;;;;7.68;55.70;99843.28;5073741;28;20593;-83
2023/01/07 00:50:33;;;;;;;3.80;1.50;;;;;;;7.54;56.54;99845.47;5075114;28;20181;-83
2023/01/07 00:52:58;;;;;;;4.00;1.40;;;;;;;7.34;56.94;99840.81;5074571;28;20182;-83
2023/01/07 00:55:25;;;;;;;3.43;1.87;;;;;;;7.51;56.57;99840.34;5074582;28;20236;-83
2023/01/07 00:57:50;;;;;;;5.67;2.27;;;;;;;7.36;57.31;99856.44;5074413;28;20198;-83
2023/01/07 01:00:18;;;;;;;4.77;1.90;;;;;;;7.56;57.09;99848.03;5074645;28;20187;-83
2023/01/07 01:02:44;;;;;;;4.90;1.90;;;;;;;7.93;55.24;99849.50;5074570;28;20183;-83
2023/01/07 01:05:10;;;;;;;4.50;1.70;;;;;;;7.74;56.08;99843.13;5074304;28;20177;-83
2023/01/07 01:07:36;;;;;;;6.53;1.73;;;;;;;7.75;56.49;99844.84;5074313;28;20517;-83
2023/01/07 01:10:03;;;;;;;4.93;1.97;;;;;;;7.87;56.64;99849.69;5073209;28;20249;-83
2023/01/07 01:12:29;;;;;;;3.03;1.53;;;;;;;7.85;55.49;99848.00;5073092;28;20212;-83
2023/01/07 01:14:54;;;;;;;7.50;1.97;;;;;;;7.78;55.32;99843.88;5074375;28;20267;-83
2023/01/07 01:17:21;;;;;;;3.43;1.40;;;;;;;7.75;56.02;99839.63;5074479;28;20185;-83
2023/01/07 01:19:46;;;;;;;4.97;1.70;;;;;;;7.83;55.85;99845.47;5073042;28;20272;-83
2023/01/07 01:22:12;;;;;;;4.93;1.83;;;;;;;7.83;55.17;99836.78;5073940;28;20314;-83
2023/01/07 01:24:37;;;;;;;3.53;1.80;;;;;;;7.93;55.38;99830.38;5073937;28;20170;-83
2023/01/07 01:27:03;;;;;;;3.97;1.43;;;;;;;7.88;55.03;99829.66;5074148;28;20177;-83
2023/01/07 01:29:28;;;;;;;3.83;1.60;;;;;;;7.78;55.26;99842.09;5073814;28;20180;-83
2023/01/07 01:31:54;;;;;;;6.00;1.93;;;;;;;7.59;56.01;99840.09;5074040;28;20603;-83
2023/01/07 01:34:19;;;;;;;6.00;1.87;;;;;;;7.69;55.84;99838.94;5073805;28;20175;-83
2023/01/07 01:36:44;;;;;;;10.20;2.40;;;;;;;7.71;56.08;99844.94;5073886;28;20173;-83
2023/01/07 01:39:10;;;;;;;4.17;1.87;;;;;;;7.76;55.26;99846.53;5073521;28;20749;-83
2023/01/07 01:41:36;;;;;;;5.60;1.97;;;;;;;7.62;55.13;99848.72;5073810;28;20176;-83
2023/01/07 01:44:21;;;;;;;4.77;2.23;;;;;;;7.48;55.79;99834.34;5073534;28;20268;-83
2023/01/07 01:46:47;;;;;;;19.93;6.50;;;;;;;7.34;56.07;99837.34;5071876;28;20188;-83
2023/01/07 01:49:26;;;;;;;11.63;3.53;;;;;;;7.25;56.83;99840.22;5073500;28;20255;-83
2023/01/07 01:52:01;;;;;;;10.77;3.10;;;;;;;7.38;56.44;99839.84;5073666;28;20157;-83
2023/01/07 01:54:28;;;;;;;6.03;3.23;;;;;;;7.43;56.08;99837.94;5073628;28;20165;-83
2023/01/07 01:56:56;;;;;;;34.77;9.33;;;;;;;7.41;56.24;99825.84;5073589;28;20173;-83
2023/01/07 01:59:26;;;;;;;13.03;3.37;;;;;;;7.48;55.92;99819.56;5072269;28;20270;-83
2023/01/07 02:01:52;;;;;;;13.50;3.67;;;;;;;7.53;55.20;99824.63;5073255;28;20181;-83
2023/01/07 02:04:20;;;;;;;5.37;2.53;;;;;;;7.31;56.16;99822.63;5072263;28;20196;-83
2023/01/07 02:06:56;;;;;;;12.80;4.20;;;;;;;7.43;56.17;99818.84;5073200;28;20209;-83
2023/01/07 02:09:21;;;;;;;6.67;3.47;;;;;;;7.46;56.10;99831.78;5073459;28;20256;-83
2023/01/07 02:12:24;;;;;;;17.37;5.83;;;;;;;7.31;56.10;99822.63;5073441;28;20667;-83
2023/01/07 02:15:08;;;;;;;7.23;3.17;;;;;;;7.29;55.63;99824.44;5072139;28;20176;-83
2023/01/07 02:17:52;;;;;;;13.37;4.07;;;;;;;7.11;56.32;99835.38;5073002;28;20194;-82
2023/01/07 02:20:35;;;;;;;6.07;2.57;;;;;;;7.15;56.07;99839.63;5073004;28;20682;-82
2023/01/07 02:23:10;;;;;;;7.27;2.53;;;;;;;7.33;55.75;99835.66;5072032;28;20169;-82
2023/01/07 02:26:09;;;;;;;7.70;2.13;;;;;;;7.28;55.77;99842.75;5073264;28;20170;-83
2023/01/07 02:28:53;;;;;;;5.77;1.77;;;;;;;7.13;55.72;99843.16;5073207;28;20184;-83
2023/01/07 02:31:44;;;;;;;6.03;2.10;;;;;;;7.14;55.79;99839.66;5072524;28;20237;-83
2023/01/07 02:34:20;;;;;;;4.73;2.03;;;;;;;7.06;56.02;99836.41;5063176;28;20218;-83
2023/01/07 02:37:13;;;;;;;3.03;1.77;;;;;;;7.08;55.85;99835.47;5073193;28;20610;-83
2023/01/07 02:39:44;;;;;;;3.77;1.60;;;;;;;7.17;56.07;99834.38;5073145;28;20248;-83
2023/01/07 02:42:34;;;;;;;4.37;1.60;;;;;;;7.17;55.44;99829.16;5071829;28;20208;-83
2023/01/07 02:45:20;;;;;;;6.63;1.80;;;;;;;7.11;55.28;99834.53;5071857;28;20174;-83
2023/01/07 02:47:53;;;;;;;6.67;1.80;;;;;;;6.92;55.31;99841.16;5072842;28;20156;-83
2023/01/07 02:50:18;;;;;;;3.17;1.30;;;;;;;6.87;56.32;99845.59;5073092;28;20161;-83
2023/01/07 02:52:44;;;;;;;2.70;1.17;;;;;;;6.79;56.15;99837.97;5072736;28;20700;-83
2023/01/07 02:55:14;;;;;;;2.07;1.00;;;;;;;6.90;55.76;99842.91;5072708;28;20535;-83
2023/01/07 02:57:51;;;;;;;4.77;1.93;;;;;;;6.97;55.62;99847.09;5073146;28;20633;-83
2023/01/07 03:00:23;;;;;;;2.97;1.43;;;;;;;7.02;55.49;99846.06;5057570;28;20264;-82
2023/01/07 03:03:06;;;;;;;3.10;1.40;;;;;;;6.88;55.05;99842.09;5077459;28;20509;-82
2023/01/07 03:05:43;;;;;;;4.73;1.30;;;;;;;6.93;54.90;99845.44;5076899;28;20493;-82
2023/01/07 03:08:33;;;;;;;2.33;1.23;;;;;;;6.86;55.54;99856.94;5077088;28;20222;-82
2023/01/07 03:11:03;;;;;;;3.13;1.40;;;;;;;6.81;55.55;99862.28;5077085;28;20153;-83
2023/01/07 03:13:46;;;;;;;5.57;1.57;;;;;;;6.79;55.35;99870.13;5076745;28;20177;-83
2023/01/07 03:16:20;;;;;;;2.87;1.27;;;;;;;6.97;55.24;99871.38;5076696;28;20606;-83
2023/01/07 03:18:51;;;;;;;5.37;1.57;;;;;;;6.72;55.58;99867.72;5076298;28;20185;-83
2023/01/07 03:21:20;;;;;;;6.53;1.70;;;;;;;6.77;56.17;99864.09;5076848;28;20560;-82
2023/01/07 03:23:54;;;;;;;2.57;1.20;;;;;;;6.69;56.23;99858.22;5076245;28;20185;-82
2023/01/07 03:26:25;;;;;;;4.47;1.30;;;;;;;6.90;55.49;99864.63;5076541;28;20176;-83
2023/01/07 03:28:52;;;;;;;2.70;1.00;;;;;;;7.04;54.97;99864.25;5075175;28;20185;-83
2023/01/07 03:31:20;;;;;;;3.17;1.07;;;;;;;6.90;55.04;99861.16;5076102;28;20197;-83
2023/01/07 03:33:53;;;;;;;3.27;1.23;;;;;;;7.03;54.47;99862.53;5076078;28;20176;-83
2023/01/07 03:36:24;;;;;;;4.63;1.37;;;;;;;7.05;54.52;99860.78;5076341;28;20164;-82
2023/01/07 03:38:51;;;;;;;9.03;2.10;;;;;;;6.94;54.32;99863.66;5074795;28;20294;-82
2023/01/07 03:44:00;;;;;;;3.70;1.77;;;;;;;6.66;55.08;99866.09;5076464;28;20180;-83
2023/01/07 03:46:26;;;;;;;5.47;2.27;;;;;;;6.74;54.93;99866.78;5075803;28;20178;-83
2023/01/07 03:48:52;;;;;;;8.53;1.57;;;;;;;6.84;54.41;99866.56;5075832;28;20170;-83
2023/01/07 03:51:17;;;;;;;5.57;1.97;;;;;;;6.86;54.78;99865.63;5076282;28;20178;-83
2023/01/07 03:53:42;;;;;;;5.60;2.17;;;;;;;6.84;54.81;99874.38;5075975;28;20204;-83
2023/01/07 03:56:08;;;;;;;3.53;1.67;;;;;;;6.85;54.41;99861.28;5075713;28;20252;-83
2023/01/07 03:58:33;;;;;;;8.33;2.30;;;;;;;6.92;54.07;99859.41;5075603;28;20197;-83
2023/01/07 04:00:59;;;;;;;2.77;1.30;;;;;;;6.89;53.88;99868.16;5075854;28;20640;-83
2023/01/07 04:03:24;;;;;;;5.53;1.60;;;;;;;6.80;53.66;99871.84;5076097;28;20226;-83
2023/01/07 04:05:49;;;;;;;3.73;1.73;;;;;;;6.67;53.42;99874.78;5075765;28;20184;-83
2023/01/07 04:08:15;;;;;;;4.80;1.80;;;;;;;6.63;54.12;99863.56;5075726;28;20575;-83
2023/01/07 04:10:40;;;;;;;8.43;2.47;;;;;;;6.62;54.12;99864.50;5075226;28;20296;-82
2023/01/07 04:13:05;;;;;;;6.63;2.87;;;;;;;6.65;54.18;99866.16;5074377;28;20188;-83
2023/01/07 04:15:31;;;;;;;8.87;3.30;;;;;;;6.72;53.95;99870.31;5074345;28;20618;-83
2023/01/07 04:17:56;;;;;;;9.70;3.23;;;;;;;6.75;53.17;99873.69;5075197;28;20201;-83
2023/01/07 04:20:22;;;;;;;17.43;6.23;;;;;;;6.68;53.83;99873.91;5075225;28;20262;-83
2023/01/07 04:22:47;;;;;;;13.60;3.97;;;;;;;6.68;53.95;99871.28;5075160;28;20632;-83
2023/01/07 04:25:13;;;;;;;7.30;3.70;;;;;;;6.44;54.34;99869.28;5075152;28;20606;-84
2023/01/07 04:27:39;;;;;;;9.13;2.70;;;;;;;6.23;55.32;99878.47;5074878;28;20169;-83
2023/01/07 04:30:04;;;;;;;7.97;2.40;;;;;;;6.20;55.24;99878.53;5074078;28;20268;-83
2023/01/07 04:32:30;;;;;;;4.10;1.97;;;;;;;6.29;55.73;99875.69;5075003;28;20177;-83
2023/01/07 04:34:55;;;;;;;7.63;2.10;;;;;;;6.35;55.40;99872.97;5075250;28;20252;-83
2023/01/07 04:37:21;;;;;;;3.70;1.90;;;;;;;6.32;55.37;99867.81;5074871;28;20634;-83
2023/01/07 04:39:46;;;;;;;4.37;1.87;;;;;;;6.18;56.58;99864.72;5073928;28;20235;-83
2023/01/07 04:42:11;;;;;;;3.20;1.80;;;;;;;6.12;56.73;99864.84;5074816;28;20230;-83
2023/01/07 04:44:37;;;;;;;3.70;1.53;;;;;;;6.22;56.63;99871.53;5074801;28;20611;-82
2023/01/07 04:47:02;;;;;;;9.30;2.27;;;;;;;6.28;56.64;99867.94;5074717;28;20184;-83
2023/01/07 04:49:28;;;;;;;4.13;2.27;;;;;;;6.23;56.55;99875.00;5073667;28;20546;-83
2023/01/07 04:51:53;;;;;;;3.70;2.07;;;;;;;6.11;55.85;99887.41;5074609;28;20607;-83
2023/01/07 04:54:18;;;;;;;15.13;6.13;;;;;;;6.07;56.14;99890.13;5074562;28;20255;-83
2023/01/07 04:56:44;;;;;;;17.40;7.33;;;;;;;6.10;56.07;99887.44;5074518;28;20248;-83
2023/01/07 04:59:10;;;;;;;18.47;7.47;;;;;;;6.13;55.72;99892.59;5074388;28;20662;-83
2023/01/07 05:01:35;;;;;;;17.97;6.90;;;;;;;6.29;55.26;99890.50;5074412;28;20181;-83
2023/01/07 05:04:00;;;;;;;10.37;5.20;;;;;;;6.09;55.73;99890.94;5074380;28;20185;-83
2023/01/07 05:06:26;;;;;;;10.33;5.17;;;;;;;5.75;56.85;99895.97;5074614;28;20184;-83
2023/01/07 05:08:51;;;;;;;11.97;5.10;;;;;;;5.82;57.09;99899.28;5073255;28;20674;-83
2023/01/07 05:11:20;;;;;;;22.87;8.60;;;;;;;5.85;56.95;99904.47;5073209;28;20649;-83
2023/01/07 05:13:48;;;;;;;17.87;7.07;;;;;;;5.80;56.75;99901.06;5074125;28;20227;-83
2023/01/07 05:16:13;;;;;;;13.47;6.03;;;;;;;5.86;57.05;99903.59;5074129;28;20177;-84
2023/01/07 05:18:39;;;;;;;17.23;6.97;;;;;;;5.86;56.61;99898.38;5073970;28;20199;-83
2023/01/07 05:21:04;;;;;;;12.20;6.63;;;;;;;5.85;56.45;99896.66;5073923;28;20683;-83
2023/01/07 05:23:30;;;;;;;13.40;6.43;;;;;;;5.80;56.31;99898.47;5073476;28;20603;-83
2023/01/07 05:25:55;;;;;;;16.40;6.13;;;;;;;5.74;55.73;99909.03;5073953;28;20183;-83
2023/01/07 05:28:20;;;;;;;10.33;4.03;;;;;;;5.67;55.03;99910.03;5073881;28;20203;-83
2023/01/07 05:30:46;;;;;;;12.20;5.00;;;;;;;5.64;55.20;99917.88;5073840;28;20176;-83
2023/01/07 05:33:12;;;;;;;8.37;3.20;;;;;;;5.61;55.26;99912.78;5073779;28;20185;-83
2023/01/07 05:35:37;;;;;;;11.37;2.90;;;;;;;5.54;55.20;99912.88;5073973;28;20168;-83
2023/01/07 05:38:03;;;;;;;9.17;3.70;;;;;;;5.55;55.10;99909.38;5072747;28;20209;-83
2023/01/07 05:40:28;;;;;;;9.37;2.87;;;;;;;5.59;55.01;99917.97;5073692;28;20186;-83
2023/01/07 05:42:54;;;;;;;9.93;3.57;;;;;;;5.69;54.17;99922.09;5073624;28;20562;-83
2023/01/07 05:45:20;;;;;;;8.63;2.83;;;;;;;5.65;54.30;99925.66;5073596;28;20267;-83
2023/01/07 05:47:46;;;;;;;7.90;3.10;;;;;;;5.43;55.01;99919.16;5073522;28;20223;-83
2023/01/07 05:50:12;;;;;;;7.03;2.23;;;;;;;5.22;55.96;99933.44;5072485;28;20605;-83
2023/01/07 05:52:37;;;;;;;3.07;1.50;;;;;;;5.06;57.00;99925.97;5072721;28;20612;-83
2023/01/07 05:55:03;;;;;;;1.80;1.00;;;;;;;4.99;57.70;99927.78;5072421;28;20179;-83
2023/01/07 05:57:29;;;;;;;3.50;1.70;;;;;;;5.15;58.18;99921.44;5072291;28;20646;-83
2023/01/07 05:59:54;;;;;;;6.27;1.63;;;;;;;5.13;58.22;99923.22;5073371;28;20640;-83
2023/01/07 06:02:19;;;;;;;5.57;1.40;;;;;;;5.15;58.45;99920.56;5073274;28;20252;-83
2023/01/07 06:04:45;;;;;;;4.30;2.03;;;;;;;5.31;58.22;99930.66;5073255;28;20187;-83
2023/01/07 06:07:10;;;;;;;2.43;1.53;;;;;;;5.41;58.21;99926.16;5072251;28;20185;-83
2023/01/07 06:09:36;;;;;;;4.17;2.17;;;;;;;5.48;57.94;99928.59;5072147;28;20224;-83
2023/01/07 06:12:01;;;;;;;8.53;2.47;;;;;;;5.46;58.49;99929.50;5072201;28;20235;-83
2023/01/07 06:14:26;;;;;;;5.43;2.60;;;;;;;5.56;58.21;99937.09;5073121;28;20208;-83
2023/01/07 06:16:52;;;;;;;3.53;2.00;;;;;;;5.66;58.34;99942.13;5073117;28;20181;-83
2023/01/07 06:19:17;;;;;;;5.00;2.80;;;;;;;5.61;59.07;99938.78;5072971;28;20236;-82
2023/01/07 06:21:42;;;;;;;4.30;1.97;;;;;;;5.63;59.01;99937.00;5071999;28;20241;-83
2023/01/07 06:24:09;;;;;;;6.50;2.60;;;;;;;5.75;58.81;99936.72;5072748;28;20177;-83
2023/01/07 06:26:34;;;;;;;6.27;2.23;;;;;;;5.79;59.15;99933.19;5072866;28;20618;-82
2023/01/07 06:29:00;;;;;;;5.23;2.77;;;;;;;5.80;58.86;99934.91;5072974;28;20184;-82
2023/01/07 06:31:25;;;;;;;5.63;2.10;;;;;;;5.78;59.41;99931.47;5079074;28;20260;-82
2023/01/07 06:33:50;;;;;;;4.50;2.23;;;;;;;5.88;59.09;99933.88;5092486;28;20241;-82
2023/01/07 06:36:16;;;;;;;4.87;2.63;;;;;;;6.06;59.08;99923.09;5091864;28;20187;-82
2023/01/07 06:38:41;;;;;;;4.77;2.27;;;;;;;6.36;59.40;99921.56;5091397;28;20308;-82
2023/01/07 06:41:07;;;;;;;4.87;2.47;;;;;;;6.69;59.36;99912.94;5093049;28;20610;-82
2023/01/07 06:43:33;;;;;;;5.37;2.53;;;;;;;7.09;58.77;99912.78;5093309;28;20168;-82
2023/01/07 06:45:58;;;;;;;6.00;1.70;;;;;;;7.56;57.41;99911.50;5093236;28;20601;-83
2023/01/07 06:48:24;;;;;;;5.67;2.93;;;;;;;8.23;57.42;99912.13;5091983;28;20280;-83
2023/01/07 06:50:49;;;;;;;11.53;4.63;;;;;;;9.07;54.04;99914.59;5093013;28;20177;-83
2023/01/07 06:53:15;;;;;;;27.83;13.60;;;;;;;9.89;49.34;99906.41;5093186;28;20255;-83
2023/01/07 06:55:40;;;;;;;15.63;7.00;;;;;;;10.25;47.88;99902.41;5093200;28;20259;-83
2023/01/07 06:58:05;;;;;;;15.60;7.47;;;;;;;10.62;46.56;99906.19;5092833;28;20201;-83
2023/01/07 07:00:31;;;;;;;18.53;7.70;;;;;;;11.00;45.55;99902.84;5093378;28;20182;-84
2023/01/07 07:02:56;;;;;;;19.80;8.20;;;;;;;11.17;44.23;99905.59;5092891;28;20187;-85
2023/01/07 07:05:21;;;;;;;20.23;9.63;;;;;;;11.12;44.12;99902.31;5093037;28;20177;-83
2023/01/07 07:07:47;;;;;;;26.80;11.67;;;;;;;10.98;44.41;99900.28;5092825;28;20202;-83
2023/01/07 07:10:12;;;;;;;25.60;13.00;;;;;;;10.97;44.31;99902.97;5092774;28;20179;-83
2023/01/07 07:12:39;;;;;;;32.37;12.60;;;;;;;10.97;44.43;99908.22;5093024;28;20562;-83
2023/01/07 07:15:06;;;;;;;22.30;11.83;;;;;;;11.35;43.94;99910.06;5092750;28;20171;-83
2023/01/07 07:17:31;;;;;;;21.67;10.97;;;;;;;11.84;42.49;99906.16;5092892;28;20183;-83
2023/01/07 07:19:57;;;;;;;16.20;9.00;;;;;;;12.05;41.73;99907.81;5092665;28;20675;-83
2023/01/07 07:22:22;;;;;;;29.67;12.20;;;;;;;12.17;41.76;99909.00;5092687;28;20264;-83
2023/01/07 07:24:47;;;;;;;19.70;8.50;;;;;;;12.13;41.99;99905.66;5092691;28;20259;-83
2023/01/07 07:27:13;;;;;;;14.43;7.40;;;;;;;12.06;41.84;99906.88;5091678;28;20255;-83
2023/01/07 07:29:38;;;;;;;15.33;7.40;;;;;;;11.90;42.00;99908.50;5092871;28;20602;-83
2023/01/07 07:32:04;;;;;;;14.37;6.53;;;;;;;11.61;42.48;99916.78;5092682;28;20219;-83
2023/01/07 07:34:29;;;;;;;14.27;6.10;;;;;;;11.43;43.16;99912.34;5092900;28;20263;-83
2023/01/07 07:36:55;;;;;;;16.23;6.67;;;;;;;11.23;43.64;99909.75;5092777;28;20215;-83
2023/01/07 07:39:20;;;;;;;16.30;6.50;;;;;;;10.99;44.21;99906.38;5092446;28;20261;-83
2023/01/07 07:41:45;;;;;;;13.17;5.80;;;;;;;10.77;44.92;99916.06;5092560;28;20172;-83
2023/01/07 07:44:11;;;;;;;8.40;4.23;;;;;;;10.62;45.57;99920.16;5092792;28;20180;-83
2023/01/07 07:46:36;;;;;;;9.17;4.33;;;;;;;10.34;46.50;99928.25;5095525;28;20624;-82
2023/01/07 07:49:02;;;;;;;17.10;6.17;;;;;;;10.36;46.99;99925.56;5096160;28;20183;-83
2023/01/07 07:51:27;;;;;;;12.10;5.60;;;;;;;10.37;47.09;99927.28;5095177;28;20633;-83
2023/01/07 07:53:52;;;;;;;11.83;5.73;;;;;;;10.37;47.81;99922.91;5096018;28;20176;-83
2023/01/07 07:56:18;;;;;;;11.90;4.77;;;;;;;10.45;48.32;99914.75;5096267;28;20260;-83
2023/01/07 07:58:43;;;;;;;14.60;6.13;;;;;;;10.60;48.78;99910.66;5095861;28;20196;-83
2023/01/07 08:01:09;;;;;;;11.83;5.13;;;;;;;10.70;48.70;99919.84;5095896;28;20172;-83
2023/01/07 08:03:35;;;;;;;10.00;4.87;;;;;;;10.85;48.59;99914.81;5095851;28;20183;-82
2023/01/07 08:06:02;;;;;;;11.13;4.50;;;;;;;10.90;48.68;99919.91;5096293;28;20176;-83
2023/01/07 08:08:27;;;;;;;6.67;3.93;;;;;;;10.99;49.20;99919.50;5095784;28;20598;-83
2023/01/07 08:10:54;;;;;;;8.57;3.90;;;;;;;11.03;49.15;99919.28;5095725;28;20187;-83
2023/01/07 08:13:20;;;;;;;18.50;5.43;;;;;;;11.11;49.40;99916.34;5095700;28;20173;-83
2023/01/07 08:15:46;;;;;;;9.87;4.90;;;;;;;11.19;50.04;99913.44;5095605;28;20199;-83
2023/01/07 08:18:11;;;;;;;7.63;4.37;;;;;;;11.32;49.87;99919.84;5094491;28;20302;-82
2023/01/07 08:20:38;;;;;;;11.77;5.33;;;;;;;11.42;50.25;99922.00;5095534;28;20176;-83
2023/01/07 08:23:05;;;;;;;8.83;4.70;;;;;;;11.56;50.25;99918.75;5095985;28;20172;-83
2023/01/07 08:25:32;;;;;;;13.57;5.90;;;;;;;11.66;49.53;99918.28;5095468;28;20349;-83
2023/01/07 08:27:58;;;;;;;15.17;5.90;;;;;;;11.79;49.68;99908.16;5095384;28;20183;-83
2023/01/07 08:30:25;;;;;;;13.20;6.20;;;;;;;11.84;49.52;99918.44;5095625;28;20659;-83
2023/01/07 08:32:50;;;;;;;15.67;7.00;;;;;;;12.00;48.73;99914.19;5094378;28;20176;-83
2023/01/07 08:35:16;;;;;;;15.57;6.20;;;;;;;12.04;48.84;99915.75;5094325;28;20627;-83
2023/01/07 08:37:42;;;;;;;11.30;4.40;;;;;;;12.09;48.08;99903.25;5094982;28;20213;-83
2023/01/07 08:40:08;;;;;;;7.03;3.60;;;;;;;12.41;47.76;99897.31;5095179;28;20178;-83
2023/01/07 08:42:34;;;;;;;2.60;1.30;;;;;;;12.56;45.54;99904.47;5095096;28;20264;-83
2023/01/07 08:44:59;;;;;;;3.63;1.50;;;;;;;12.68;44.82;99898.59;5095386;28;20229;-83
2023/01/07 08:47:26;;;;;;;3.30;1.70;;;;;;;12.91;44.68;99894.84;5095394;28;20243;-83
2023/01/07 08:49:55;;;;;;;2.97;1.67;;;;;;;12.89;43.81;99897.53;5095224;28;20181;-83
2023/01/07 08:52:22;;;;;;;4.40;1.53;;;;;;;12.98;44.31;99890.97;5093871;28;20273;-83
2023/01/07 08:54:48;;;;;;;3.30;1.43;;;;;;;13.17;43.87;99896.19;5094128;28;20214;-83
2023/01/07 08:57:14;;;;;;;3.07;1.33;;;;;;;13.28;43.04;99888.63;5094238;28;20211;-83
2023/01/07 08:59:39;;;;;;;4.30;1.50;;;;;;;13.34;43.29;99886.50;5094756;28;20195;-83
2023/01/07 09:02:18;;;;;;;2.57;1.23;;;;;;;13.54;42.94;99872.31;5094806;28;20180;-83
2023/01/07 09:04:44;;;;;;;8.37;3.70;;;;;;;13.72;40.88;99870.47;5095221;28;20236;-83
2023/01/07 09:07:10;;;;;;;2.90;1.27;;;;;;;13.69;41.69;99871.47;5094922;28;20203;-83
2023/01/07 09:09:36;;;;;;;2.40;1.23;;;;;;;13.55;41.25;99866.94;5093700;28;20261;-83
2023/01/07 09:12:02;;;;;;;8.17;2.30;;;;;;;13.84;40.93;99861.88;5095161;28;20262;-83
2023/01/07 09:14:28;;;;;;;3.33;1.60;;;;;;;13.90;41.67;99857.16;5094606;28;20233;-83
2023/01/07 09:16:53;;;;;;;3.90;1.00;;;;;;;14.15;41.39;99852.22;5094879;28;20180;-83
2023/01/07 09:19:19;;;;;;;6.83;1.20;;;;;;;14.20;41.31;99859.88;5093503;28;20301;-83
2023/01/07 09:21:44;;;;;;;4.27;1.40;;;;;;;14.19;40.85;99850.25;5093488;28;20176;-83
2023/01/07 09:24:10;;;;;;;2.73;1.13;;;;;;;14.41;40.86;99844.66;5094471;28;20612;-83
2023/01/07 09:26:35;;;;;;;2.87;1.20;;;;;;;14.59;40.24;99844.47;5093428;28;20599;-83
2023/01/07 09:29:01;;;;;;;1.87;1.10;;;;;;;14.58;40.41;99834.00;5093411;28;20188;-83
2023/01/07 09:31:26;;;;;;;5.80;1.37;;;;;;;14.71;40.59;99834.97;5094332;28;20586;-83
2023/01/07 09:33:51;;;;;;;5.83;1.70;;;;;;;14.70;39.83;99830.66;5093290;28;20216;-83
2023/01/07 09:36:17;;;;;;;2.83;1.37;;;;;;;14.86;40.08;99817.41;5094251;28;20168;-83
2023/01/07 09:38:42;;;;;;;3.23;1.10;;;;;;;14.89;39.82;99820.69;5094033;28;20572;-83
2023/01/07 09:41:31;;;;;;;4.73;1.40;;;;;;;15.02;40.10;99816.38;5094402;28;20198;-83
2023/01/07 09:44:06;;;;;;;6.10;1.43;;;;;;;15.08;39.41;99816.03;5094233;28;20251;-83
2023/01/07 09:46:32;;;;;;;3.10;1.00;;;;;;;15.09;39.79;99808.97;5093020;28;20183;-84
2023/01/07 09:49:02;;;;;;;9.50;2.07;;;;;;;15.28;38.90;99804.25;5094219;28;20175;-84
2023/01/07 09:51:34;;;;;;;7.23;3.07;;;;;;;15.43;39.09;99798.03;5094154;28;20258;-84
2023/01/07 09:54:02;;;;;;;8.30;2.43;;;;;;;15.50;38.21;99798.53;5093912;28;20605;-84
2023/01/07 09:56:29;;;;;;;3.57;1.30;;;;;;;15.43;38.38;99786.63;5094137;28;20185;-85
2023/01/07 09:58:57;;;;;;;3.70;1.23;;;;;;;15.51;37.92;99779.09;5092746;28;20202;-85
2023/01/07 10:01:57;;;;;;;3.57;1.43;;;;;;;15.64;38.16;99780.03;5093575;28;20180;-86
2023/01/07 10:04:48;;;;;;;1.97;1.20;;;;;;;15.78;37.95;99777.34;5056894;28;20233;-84
2023/01/07 10:07:25;;;;;;;2.17;0.83;;;;;;;15.61;38.15;99780.22;5093989;28;20158;-85
2023/01/07 10:10:30;;;;;;;3.33;1.03;;;;;;;15.16;38.37;99779.44;5093448;28;20181;-85
2023/01/07 10:13:34;;;;;;;4.40;1.07;;;;;;;15.61;38.65;99774.94;5077313;28;20196;-85
2023/01/07 10:16:13;;;;;;;2.80;1.10;;;;;;;15.38;39.18;99771.88;5084296;28;20704;-85
2023/01/07 10:19:24;;;;;;;2.03;1.10;;;;;;;15.21;38.97;99768.59;5092486;28;20255;-85
2023/01/07 10:22:14;;;;;;;1.50;0.60;;;;;;;15.33;39.09;99766.03;5094025;28;20192;-85
2023/01/07 10:24:45;;;;;;;3.67;1.23;;;;;;;15.61;39.29;99756.44;5093966;28;20321;-85
2023/01/07 10:27:14;;;;;;;4.27;1.50;;;;;;;15.63;39.48;99752.75;5093541;28;20254;-85
2023/01/07 10:29:53;;;;;;;5.33;1.67;;;;;;;15.85;38.96;99750.41;5093318;28;20258;-85
2023/01/07 10:32:21;;;;;;;3.87;1.17;;;;;;;16.00;38.46;99745.94;5093659;28;20171;-85
2023/01/07 10:34:54;;;;;;;1.83;0.80;;;;;;;16.27;37.10;99738.81;5093552;28;20199;-86
2023/01/07 10:37:30;;;;;;;1.87;0.97;;;;;;;16.13;37.93;99740.69;5092175;28;20199;-84
2023/01/07 10:40:11;;;;;;;6.50;1.73;;;;;;;16.20;37.73;99737.53;5092208;28;20247;-85
2023/01/07 10:42:58;;;;;;;5.93;1.27;;;;;;;16.30;37.45;99730.69;5092253;28;20175;-85
2023/01/07 10:45:42;;;;;;;3.70;1.23;;;;;;;16.14;37.67;99727.34;5093466;28;20225;-85
2023/01/07 10:48:14;;;;;;;7.63;1.43;;;;;;;16.11;38.21;99717.00;5092186;28;20191;-85
2023/01/07 10:50:39;;;;;;;3.77;1.23;;;;;;;16.03;38.09;99711.38;5093120;28;20186;-85
2023/01/07 10:53:33;;;;;;;2.57;0.90;;;;;;;16.27;37.54;99706.25;5093628;28;20259;-85
2023/01/07 10:56:41;;;;;;;2.93;0.80;;;;;;;16.72;36.59;99704.97;5092171;28;20184;-85
2023/01/07 10:59:14;;;;;;;1.10;0.67;;;;;;;16.69;36.05;99699.91;5083788;28;20325;-85
2023/01/07 11:01:44;;;;;;;3.13;1.40;;;;;;;16.51;36.63;99699.28;5093284;28;20437;-85
2023/01/07 11:04:15;;;;;;;55.30;21.80;;;;;;;16.78;37.05;99686.00;5093270;28;20179;-85
2023/01/07 11:06:44;;;;;;;2.10;1.10;;;;;;;16.64;36.33;99699.38;5092962;28;20478;-85
2023/01/07 11:09:18;;;;;;;13.23;5.03;;;;;;;16.71;36.95;99690.03;5093021;28;20621;-85
2023/01/07 11:11:45;;;;;;;1.77;0.90;;;;;;;16.93;36.02;99679.63;5093559;28;20514;-86
2023/01/07 11:14:33;;;;;;;3.73;1.10;;;;;;;16.98;35.63;99674.91;5092174;28;20176;-86
2023/01/07 11:17:25;;;;;;;3.50;1.40;;;;;;;17.13;35.93;99671.16;5092758;28;20526;-85
2023/01/07 11:19:51;;;;;;;2.90;1.10;;;;;;;17.03;35.90;99667.47;5091943;28;20212;-85
2023/01/07 11:22:25;;;;;;;3.13;1.40;;;;;;;17.00;35.88;99667.69;5097062;28;20168;-86
2023/01/07 11:24:55;;;;;;;14.27;7.37;;;;;;;17.12;36.38;99662.38;5096763;28;20186;-85
2023/01/07 11:27:23;;;;;;;12.70;3.70;;;;;;;17.38;36.11;99657.84;5097250;28;20269;-85
2023/01/07 11:30:24;;;;;;;4.60;1.10;;;;;;;17.52;35.34;99663.00;5096657;28;20225;-85
2023/01/07 11:33:24;;;;;;;3.00;1.20;;;;;;;17.38;35.53;99659.63;5087648;28;20208;-85
2023/01/07 11:35:55;;;;;;;2.97;1.20;;;;;;;17.41;35.08;99657.63;5095595;28;20564;-85
2023/01/07 11:38:32;;;;;;;1.93;0.90;;;;;;;17.43;35.29;99655.69;5096273;28;20208;-85
2023/01/07 11:41:00;;;;;;;4.87;1.10;;;;;;;17.58;35.65;99651.97;5096917;28;20180;-85
2023/01/07 11:43:38;;;;;;;3.83;1.40;;;;;;;17.66;35.56;99649.59;5096644;28;20264;-85
2023/01/07 11:46:11;;;;;;;2.83;0.97;;;;;;;17.74;35.51;99643.75;5096715;28;20184;-85
2023/01/07 11:48:41;;;;;;;4.30;1.77;;;;;;;18.03;34.72;99646.91;5095355;28;20169;-85
2023/01/07 11:51:10;;;;;;;3.70;1.60;;;;;;;17.94;34.28;99643.13;5097141;28;20236;-85
2023/01/07 11:53:43;;;;;;;5.97;2.17;;;;;;;18.07;34.83;99643.91;5096189;28;20662;-85